• Join FlightAware (Why Join?)
  • Login
  • US Flag 
11:13PM EDT


 

Airport Tracker/Info


-or-


 

Live Flight TrackerFlight Track Log ✈ BOE5 ✈ 17-Apr-2013 ✈ KSBD - KSBD

Flight Track Log - Related Links

Times and Time Zones

All times are in EDT time to prevent confusion due to time zone crossing. See the BOE5 flight status page for this flight to view local times or setup timezone preferences in your user account.

Time Position Orientation Groundspeed Altitude Reporting Facility
EDT Latitude Longitude Course Direction KTS MPH feet Rate Location/Type
01:18PM 34.0954 -117.2349 North  Level Estimated
01:19PM 34.0954 -117.2349 40° Northeast  Level Estimated
01:20PM 34.0954 -117.2349 40° Northeast  Level Estimated
01:21PM 30.2076 -120.8268 206° Southwest 130 150  Level FlightAware Transoceanic
01:22PM 30.1750 -120.8452 206° Southwest 130 150 12,360 Level FlightAware Transoceanic
01:23PM 30.1424 -120.8636 206° Southwest 130 150 17,400 Level FlightAware Transoceanic
01:24PM 30.1098 -120.8820 206° Southwest 130 150 29,280 Level FlightAware Transoceanic
01:24PM 29.0000 -121.5000 210° Southwest 49 56 43,000 7,140 Climbing Oakland Oceanic (ODAPS)
01:25PM 30.0772 -120.9004 206° Southwest 130 150  Descending FlightAware Transoceanic
01:26PM 30.0446 -120.9187 206° Southwest 130 150 8,580 Level FlightAware Transoceanic
01:27PM 30.0120 -120.9371 206° Southwest 130 150 10,740 Level FlightAware Transoceanic
01:28PM 29.9794 -120.9554 206° Southwest 130 150 14,280 Level FlightAware Transoceanic
01:29PM 29.9468 -120.9737 206° Southwest 130 150 21,480 Level FlightAware Transoceanic
01:30PM 24.7781 -124.1574 209° Southwest 49 56 43,000 21,480 Climbing FlightAware Transoceanic
01:31PM 24.4950 -124.3279 209° Southwest 49 56 43,000  Level FlightAware Transoceanic
01:32PM 24.2116 -124.4975 209° Southwest 49 56 43,000  Level FlightAware Transoceanic
01:33PM 23.9281 -124.6664 209° Southwest 49 56 43,000  Level FlightAware Transoceanic
01:34PM 23.6444 -124.8345 208° Southwest 49 56 43,000  Level FlightAware Transoceanic
01:35PM 23.3605 -125.0020 208° Southwest 49 56 43,000  Level FlightAware Transoceanic
01:36PM 23.0765 -125.1687 208° Southwest 49 56 43,000  Level FlightAware Transoceanic
01:37PM 22.7922 -125.3347 208° Southwest 49 56 43,000  Level FlightAware Transoceanic
01:38PM 22.5078 -125.5000 208° Southwest 49 56 43,000  Level FlightAware Transoceanic
01:39PM 22.2232 -125.6647 208° Southwest 49 56 43,000  Level FlightAware Transoceanic
01:40PM 21.9385 -125.8286 208° Southwest 49 56 43,000  Level FlightAware Transoceanic
01:41PM 21.6536 -125.9920 208° Southwest 49 56 43,000  Level FlightAware Transoceanic
01:42PM 21.3685 -126.1546 208° Southwest 49 56 43,000  Level FlightAware Transoceanic
01:43PM 21.0833 -126.3167 23° Northeast 49 56 43,000  Level FlightAware Transoceanic
01:44PM 21.2147 -126.2554 24° Northeast 49 56 43,000  Level FlightAware Transoceanic
01:45PM 21.3461 -126.1941 24° Northeast 49 56 43,000  Level FlightAware Transoceanic
01:46PM 21.4775 -126.1326 24° Northeast 49 56 43,000  Level FlightAware Transoceanic
01:47PM 21.6088 -126.0710 24° Northeast 49 56 43,000  Level FlightAware Transoceanic
01:48PM 21.7401 -126.0093 24° Northeast 49 56 43,000  Level FlightAware Transoceanic
01:49PM 21.8714 -125.9475 24° Northeast 49 56 43,000  Level FlightAware Transoceanic
01:50PM 22.0027 -125.8856 24° Northeast 49 56 43,000  Level FlightAware Transoceanic
01:51PM 22.1339 -125.8236 24° Northeast 49 56 43,000  Level FlightAware Transoceanic
01:52PM 22.2652 -125.7615 24° Northeast 49 56 43,000  Level FlightAware Transoceanic
01:53PM 22.3964 -125.6992 24° Northeast 49 56 43,000  Level FlightAware Transoceanic
01:54PM 22.5275 -125.6368 24° Northeast 49 56 43,000  Level FlightAware Transoceanic
01:55PM 22.6587 -125.5743 24° Northeast 49 56 43,000  Level FlightAware Transoceanic
01:56PM 22.7898 -125.5117 24° Northeast 49 56 43,000  Level FlightAware Transoceanic
01:57PM 22.9209 -125.4490 24° Northeast 49 56 43,000  Level FlightAware Transoceanic
01:58PM 23.0520 -125.3861 24° Northeast 49 56 43,000  Level FlightAware Transoceanic
01:59PM 23.1830 -125.3231 24° Northeast 49 56 43,000  Level FlightAware Transoceanic
02:00PM 23.3141 -125.2600 24° Northeast 49 56 43,000  Level FlightAware Transoceanic
02:01PM 23.4450 -125.1968 24° Northeast 49 56 43,000  Level FlightAware Transoceanic
02:02PM 23.5760 -125.1334 24° Northeast 49 56 43,000  Level FlightAware Transoceanic
02:03PM 23.7070 -125.0699 24° Northeast 49 56 43,000  Level FlightAware Transoceanic
02:04PM 23.8379 -125.0063 24° Northeast 49 56 43,000  Level FlightAware Transoceanic
02:05PM 23.9688 -124.9426 24° Northeast 49 56 43,000  Level FlightAware Transoceanic
02:06PM 24.0997 -124.8787 24° Northeast 49 56 43,000  Level FlightAware Transoceanic
02:07PM 24.2305 -124.8147 24° Northeast 49 56 43,000  Level FlightAware Transoceanic
02:08PM 24.3613 -124.7506 24° Northeast 49 56 43,000  Level FlightAware Transoceanic
02:09PM 24.4921 -124.6863 24° Northeast 49 56 43,000  Level FlightAware Transoceanic
02:10PM 24.6229 -124.6219 24° Northeast 49 56 43,000  Level FlightAware Transoceanic
02:11PM 24.7536 -124.5574 24° Northeast 49 56 43,000  Level FlightAware Transoceanic
02:12PM 24.8843 -124.4927 24° Northeast 49 56 43,000  Level FlightAware Transoceanic
02:13PM 25.0150 -124.4279 24° Northeast 49 56 43,000  Level FlightAware Transoceanic
02:14PM 25.1457 -124.3630 24° Northeast 49 56 43,000  Level FlightAware Transoceanic
02:15PM 25.2763 -124.2979 24° Northeast 49 56 43,000  Level FlightAware Transoceanic
02:16PM 25.4069 -124.2327 24° Northeast 49 56 43,000  Level FlightAware Transoceanic
02:17PM 25.5375 -124.1673 24° Northeast 49 56 43,000  Level FlightAware Transoceanic
02:18PM 25.6680 -124.1018 24° Northeast 49 56 43,000  Level FlightAware Transoceanic
02:19PM 25.7985 -124.0362 24° Northeast 49 56 43,000  Level FlightAware Transoceanic
02:20PM 25.9290 -123.9704 24° Northeast 49 56 43,000  Level FlightAware Transoceanic
02:21PM 26.0594 -123.9044 24° Northeast 49 56 43,000  Level FlightAware Transoceanic
02:22PM 26.1898 -123.8383 24° Northeast 49 56 43,000  Level FlightAware Transoceanic
02:23PM 26.3202 -123.7721 25° Northeast 49 56 43,000  Level FlightAware Transoceanic
02:24PM 26.4506 -123.7057 25° Northeast 49 56 43,000  Level FlightAware Transoceanic
02:24PM 29.0000 -121.5000 210° Southwest 49 56 43,000  Level Oakland Oceanic (ODAPS)
02:25PM 26.5809 -123.6392 25° Northeast 49 56 43,000  Level FlightAware Transoceanic
02:26PM 26.7112 -123.5725 25° Northeast 49 56 43,000  Level FlightAware Transoceanic
02:27PM 26.8415 -123.5057 25° Northeast 49 56 43,000  Level FlightAware Transoceanic
02:28PM 26.9717 -123.4387 25° Northeast 49 56 43,000  Level FlightAware Transoceanic
02:29PM 27.1019 -123.3715 25° Northeast 49 56 43,000  Level FlightAware Transoceanic
02:30PM 24.6208 -124.2522 209° Southwest 49 56 43,000  Level FlightAware Transoceanic
02:31PM 24.5621 -124.2875 209° Southwest 49 56 43,000  Level FlightAware Transoceanic
02:32PM 24.5034 -124.3228 209° Southwest 49 56 43,000  Level FlightAware Transoceanic
02:33PM 24.4446 -124.3581 209° Southwest 49 56 43,000  Level FlightAware Transoceanic
02:34PM 24.3859 -124.3933 209° Southwest 49 56 43,000  Level FlightAware Transoceanic
02:35PM 24.3271 -124.4285 209° Southwest 49 56 43,000  Level FlightAware Transoceanic
02:36PM 24.2683 -124.4636 209° Southwest 49 56 43,000  Level FlightAware Transoceanic
02:37PM 24.2095 -124.4987 209° Southwest 49 56 43,000  Level FlightAware Transoceanic
02:38PM 24.1507 -124.5338 209° Southwest 49 56 43,000  Level FlightAware Transoceanic
02:39PM 24.0920 -124.5689 209° Southwest 49 56 43,000  Level FlightAware Transoceanic
02:40PM 24.0331 -124.6039 209° Southwest 49 56 43,000  Level FlightAware Transoceanic
02:41PM 23.9743 -124.6389 209° Southwest 49 56 43,000  Level FlightAware Transoceanic
02:42PM 23.9155 -124.6739 209° Southwest 49 56 43,000  Level FlightAware Transoceanic
02:43PM 23.8567 -124.7088 208° Southwest 49 56 43,000  Level FlightAware Transoceanic
02:44PM 23.7978 -124.7437 208° Southwest 49 56 43,000  Level FlightAware Transoceanic
02:45PM 23.7390 -124.7786 208° Southwest 49 56 43,000  Level FlightAware Transoceanic
02:46PM 23.6801 -124.8134 208° Southwest 49 56 43,000  Level FlightAware Transoceanic
02:47PM 23.6213 -124.8482 208° Southwest 49 56 43,000  Level FlightAware Transoceanic
02:48PM 23.5624 -124.8830 208° Southwest 49 56 43,000 -25,320 Level FlightAware Transoceanic
02:48PM 29.0000 -121.5000 210° Southwest 49 56 5,500  Descending Oakland Oceanic (ODAPS)
02:49PM 23.5035 -124.9177 208° Southwest 49 56 43,000 24,720 Climbing FlightAware Transoceanic
02:50PM 23.4447 -124.9524 208° Southwest 49 56 43,000  Level FlightAware Transoceanic
02:51PM 23.3858 -124.9871 208° Southwest 49 56 43,000  Level FlightAware Transoceanic
02:52PM 23.3269 -125.0218 208° Southwest 49 56 43,000  Level FlightAware Transoceanic
02:53PM 23.2680 -125.0564 208° Southwest 49 56 43,000 -18,780 Level FlightAware Transoceanic
02:54PM 22.7422 -125.3639 208° Southwest 49 56 5,500 -18,780 Descending FlightAware Transoceanic
02:55PM 22.6785 -125.4009 208° Southwest 49 56 5,500  Level FlightAware Transoceanic
02:56PM 22.6148 -125.4379 208° Southwest 49 56 5,500  Level FlightAware Transoceanic
02:57PM 22.5511 -125.4749 208° Southwest 49 56 5,500  Level FlightAware Transoceanic
02:58PM 22.4874 -125.5119 208° Southwest 49 56 5,500  Level FlightAware Transoceanic
02:59PM 22.4236 -125.5488 208° Southwest 49 56 5,500  Level FlightAware Transoceanic
03:00PM 22.3599 -125.5857 208° Southwest 49 56 5,500  Level FlightAware Transoceanic
03:01PM 22.2961 -125.6226 208° Southwest 49 56 5,500  Level FlightAware Transoceanic
03:02PM 22.2324 -125.6594 208° Southwest 49 56 5,500  Level FlightAware Transoceanic
03:03PM 22.1686 -125.6962 208° Southwest 49 56 5,500  Level FlightAware Transoceanic
03:04PM 22.1048 -125.7329 208° Southwest 49 56 5,500  Level FlightAware Transoceanic
03:05PM 22.0410 -125.7697 208° Southwest 49 56 5,500  Level FlightAware Transoceanic
03:06PM 21.9772 -125.8064 208° Southwest 49 56 5,500  Level FlightAware Transoceanic
03:07PM 21.9135 -125.8430 208° Southwest 49 56 5,500  Level FlightAware Transoceanic
03:08PM 21.8496 -125.8797 208° Southwest 49 56 5,500  Level FlightAware Transoceanic
03:09PM 21.7858 -125.9163 208° Southwest 49 56 5,500  Level FlightAware Transoceanic
03:10PM 21.7220 -125.9528 208° Southwest 49 56 5,500  Level FlightAware Transoceanic
03:11PM 21.6582 -125.9893 208° Southwest 49 56 5,500  Level FlightAware Transoceanic
03:12PM 21.5943 -126.0258 208° Southwest 49 56 5,500  Level FlightAware Transoceanic
03:13PM 21.5305 -126.0623 208° Southwest 49 56 5,500  Level FlightAware Transoceanic
03:14PM 21.4666 -126.0987 208° Southwest 49 56 5,500  Level FlightAware Transoceanic
03:15PM 21.4028 -126.1351 208° Southwest 49 56 5,500  Level FlightAware Transoceanic
03:16PM 21.3389 -126.1715 208° Southwest 49 56 5,500  Level FlightAware Transoceanic
03:17PM 21.2750 -126.2078 208° Southwest 49 56 5,500  Level FlightAware Transoceanic
03:18PM 21.2111 -126.2441 208° Southwest 49 56 5,500  Level FlightAware Transoceanic
03:19PM 21.1472 -126.2804 208° Southwest 49 56 5,500  Level FlightAware Transoceanic
03:20PM 21.0833 -126.3167 23° Northeast 49 56 5,500  Level FlightAware Transoceanic
03:21PM 21.2147 -126.2554 24° Northeast 49 56 5,500  Level FlightAware Transoceanic
03:22PM 21.3461 -126.1941 24° Northeast 49 56 5,500  Level FlightAware Transoceanic
03:23PM 21.4775 -126.1326 24° Northeast 49 56 5,500  Level FlightAware Transoceanic
03:24PM 21.6088 -126.0710 24° Northeast 49 56 5,500  Level FlightAware Transoceanic
03:25PM 21.7401 -126.0093 24° Northeast 49 56 5,500  Level FlightAware Transoceanic
03:26PM 21.8714 -125.9475 24° Northeast 49 56 5,500  Level FlightAware Transoceanic
03:27PM 22.0027 -125.8856 24° Northeast 49 56 5,500  Level FlightAware Transoceanic
03:28PM 22.1339 -125.8236 24° Northeast 49 56 5,500  Level FlightAware Transoceanic
03:29PM 22.2652 -125.7615 24° Northeast 49 56 5,500  Level FlightAware Transoceanic
03:30PM 22.3964 -125.6992 24° Northeast 49 56 5,500  Level FlightAware Transoceanic
03:31PM 22.5275 -125.6368 24° Northeast 49 56 5,500  Level FlightAware Transoceanic
03:32PM 22.6587 -125.5743 24° Northeast 49 56 5,500  Level FlightAware Transoceanic
03:33PM 22.7898 -125.5117 24° Northeast 49 56 5,500  Level FlightAware Transoceanic
03:34PM 22.9209 -125.4490 24° Northeast 49 56 5,500  Level FlightAware Transoceanic
03:35PM 23.0520 -125.3861 24° Northeast 49 56 5,500  Level FlightAware Transoceanic
03:36PM 23.1830 -125.3231 24° Northeast 49 56 5,500  Level FlightAware Transoceanic
03:37PM 23.3141 -125.2600 24° Northeast 49 56 5,500  Level FlightAware Transoceanic
03:38PM 23.4450 -125.1968 24° Northeast 49 56 5,500  Level FlightAware Transoceanic
03:39PM 23.5760 -125.1334 24° Northeast 49 56 5,500  Level FlightAware Transoceanic
03:40PM 23.7070 -125.0699 24° Northeast 49 56 5,500  Level FlightAware Transoceanic
03:41PM 23.8379 -125.0063 24° Northeast 49 56 5,500  Level FlightAware Transoceanic
03:42PM 23.9688 -124.9426 24° Northeast 49 56 5,500  Level FlightAware Transoceanic
03:43PM 24.0997 -124.8787 24° Northeast 49 56 5,500  Level FlightAware Transoceanic
03:44PM 24.2305 -124.8147 24° Northeast 49 56 5,500  Level FlightAware Transoceanic
03:45PM 24.3613 -124.7506 24° Northeast 49 56 5,500  Level FlightAware Transoceanic
03:46PM 24.4921 -124.6863 24° Northeast 49 56 5,500  Level FlightAware Transoceanic
03:47PM 24.6229 -124.6219 24° Northeast 49 56 5,500  Level FlightAware Transoceanic
03:48PM 24.7536 -124.5574 24° Northeast 49 56 5,500  Level FlightAware Transoceanic
03:49PM 24.8843 -124.4927 24° Northeast 49 56 5,500  Level FlightAware Transoceanic
03:50PM 25.0150 -124.4279 24° Northeast 49 56 5,500  Level FlightAware Transoceanic
03:51PM 25.1457 -124.3630 24° Northeast 49 56 5,500  Level FlightAware Transoceanic
03:52PM 25.2763 -124.2979 24° Northeast 49 56 5,500  Level FlightAware Transoceanic
03:53PM 25.4069 -124.2327 24° Northeast 49 56 5,500  Level FlightAware Transoceanic
03:54PM 25.5375 -124.1673 24° Northeast 49 56 5,500  Level FlightAware Transoceanic
03:55PM 25.6680 -124.1018 24° Northeast 49 56 5,500  Level FlightAware Transoceanic
03:56PM 25.7985 -124.0362 24° Northeast 49 56 5,500  Level FlightAware Transoceanic
03:57PM 25.9290 -123.9704 24° Northeast 49 56 5,500  Level FlightAware Transoceanic
03:58PM 26.0594 -123.9044 24° Northeast 49 56 5,500  Level FlightAware Transoceanic
03:59PM 26.1898 -123.8383 24° Northeast 49 56 5,500  Level FlightAware Transoceanic
04:00PM 26.3202 -123.7721 25° Northeast 49 56 5,500  Level FlightAware Transoceanic
04:01PM 26.4506 -123.7057 25° Northeast 49 56 5,500  Level FlightAware Transoceanic
04:02PM 26.5809 -123.6392 25° Northeast 49 56 5,500  Level FlightAware Transoceanic
04:03PM 26.7112 -123.5725 25° Northeast 49 56 5,500  Level FlightAware Transoceanic
04:03PM 25.0667 -121.8833 227° Southwest 399 459 5,500  Level Oakland Oceanic (ODAPS)
04:04PM 26.8415 -123.5057 25° Northeast 49 56 5,500  Level FlightAware Transoceanic
04:05PM 26.9717 -123.4387 25° Northeast 49 56 5,500  Level FlightAware Transoceanic
04:06PM 27.1019 -123.3715 25° Northeast 49 56 5,500  Level FlightAware Transoceanic
04:07PM 27.2321 -123.3042 25° Northeast 49 56 5,500  Level FlightAware Transoceanic
04:08PM 27.3622 -123.2368 25° Northeast 49 56 5,500  Level FlightAware Transoceanic
04:09PM 24.3730 -122.6852 226° Southwest 399 459 5,500  Level FlightAware Transoceanic
04:10PM 24.2956 -122.7738 226° Southwest 399 459 5,500  Level FlightAware Transoceanic
04:11PM 24.2182 -122.8622 226° Southwest 399 459 5,500  Level FlightAware Transoceanic
04:12PM 24.1408 -122.9506 226° Southwest 399 459 5,500  Level FlightAware Transoceanic
04:13PM 24.0633 -123.0388 226° Southwest 399 459 5,500  Level FlightAware Transoceanic
04:14PM 23.9858 -123.1269 226° Southwest 399 459 5,500  Level FlightAware Transoceanic
04:15PM 23.9082 -123.2150 226° Southwest 399 459 5,500  Level FlightAware Transoceanic
04:16PM 23.8305 -123.3029 226° Southwest 399 459 5,500  Level FlightAware Transoceanic
04:17PM 23.7528 -123.3907 226° Southwest 399 459 5,500  Level FlightAware Transoceanic
04:18PM 23.6751 -123.4784 226° Southwest 399 459 5,500  Level FlightAware Transoceanic
04:19PM 23.5973 -123.5660 226° Southwest 399 459 5,500  Level FlightAware Transoceanic
04:20PM 23.5195 -123.6535 226° Southwest 399 459 5,500  Level FlightAware Transoceanic
04:21PM 23.4416 -123.7409 226° Southwest 399 459 5,500  Level FlightAware Transoceanic
04:22PM 23.3636 -123.8281 226° Southwest 399 459 5,500  Level FlightAware Transoceanic
04:23PM 23.2856 -123.9153 226° Southwest 399 459 5,500  Level FlightAware Transoceanic
04:24PM 23.2076 -124.0024 226° Southwest 399 459 5,500  Level FlightAware Transoceanic
04:25PM 23.1295 -124.0894 226° Southwest 399 459 5,500  Level FlightAware Transoceanic
04:26PM 23.0514 -124.1763 226° Southwest 399 459 5,500  Level FlightAware Transoceanic
04:27PM 22.9732 -124.2631 226° Southwest 399 459 5,500  Level FlightAware Transoceanic
04:28PM 22.8950 -124.3497 226° Southwest 399 459 5,500  Level FlightAware Transoceanic
04:29PM 22.8167 -124.4363 226° Southwest 399 459 5,500  Level FlightAware Transoceanic
04:30PM 22.7384 -124.5228 225° Southwest 399 459 5,500  Level FlightAware Transoceanic
04:31PM 22.6600 -124.6092 225° Southwest 399 459 5,500  Level FlightAware Transoceanic
04:32PM 22.5816 -124.6955 225° Southwest 399 459 5,500  Level FlightAware Transoceanic
04:33PM 22.5032 -124.7816 225° Southwest 399 459 5,500  Level FlightAware Transoceanic
04:34PM 22.4247 -124.8677 225° Southwest 399 459 5,500  Level FlightAware Transoceanic
04:35PM 22.3461 -124.9537 225° Southwest 399 459 5,500  Level FlightAware Transoceanic
04:36PM 22.2675 -125.0396 225° Southwest 399 459 5,500  Level FlightAware Transoceanic
04:37PM 22.1889 -125.1254 225° Southwest 399 459 5,500  Level FlightAware Transoceanic
04:38PM 22.1102 -125.2111 225° Southwest 399 459 5,500  Level FlightAware Transoceanic
04:39PM 22.0315 -125.2967 225° Southwest 399 459 5,500  Level FlightAware Transoceanic
04:40PM 21.9527 -125.3822 225° Southwest 399 459 5,500  Level FlightAware Transoceanic
04:41PM 21.8739 -125.4676 225° Southwest 399 459 5,500  Level FlightAware Transoceanic
04:42PM 21.7950 -125.5530 225° Southwest 399 459 5,500  Level FlightAware Transoceanic
04:43PM 21.7161 -125.6382 225° Southwest 399 459 5,500  Level FlightAware Transoceanic
04:44PM 21.6372 -125.7233 225° Southwest 399 459 5,500  Level FlightAware Transoceanic
04:45PM 21.5582 -125.8084 225° Southwest 399 459 5,500  Level FlightAware Transoceanic
04:46PM 21.4791 -125.8933 225° Southwest 399 459 5,500  Level FlightAware Transoceanic
04:47PM 21.4001 -125.9782 225° Southwest 399 459 5,500  Level FlightAware Transoceanic
04:48PM 21.3209 -126.0629 225° Southwest 399 459 5,500  Level FlightAware Transoceanic
04:49PM 21.2418 -126.1476 225° Southwest 399 459 5,500  Level FlightAware Transoceanic
04:50PM 21.1626 -126.2322 225° Southwest 399 459 5,500  Level FlightAware Transoceanic
04:51PM 21.0833 -126.3167 23° Northeast 399 459 5,500  Level FlightAware Transoceanic
04:52PM 21.2147 -126.2554 24° Northeast 399 459 5,500  Level FlightAware Transoceanic
04:53PM 21.3461 -126.1941 24° Northeast 399 459 5,500  Level FlightAware Transoceanic
04:54PM 21.4775 -126.1326 24° Northeast 399 459 5,500  Level FlightAware Transoceanic
04:55PM 21.6088 -126.0710 24° Northeast 399 459 5,500  Level FlightAware Transoceanic
04:56PM 21.7401 -126.0093 24° Northeast 399 459 5,500  Level FlightAware Transoceanic
04:57PM 21.8714 -125.9475 24° Northeast 399 459 5,500  Level FlightAware Transoceanic
04:58PM 22.0027 -125.8856 24° Northeast 399 459 5,500  Level FlightAware Transoceanic
04:59PM 22.1339 -125.8236 24° Northeast 399 459 5,500  Level FlightAware Transoceanic
05:00PM 22.2652 -125.7615 24° Northeast 399 459 5,500  Level FlightAware Transoceanic
05:01PM 22.3964 -125.6992 24° Northeast 399 459 5,500  Level FlightAware Transoceanic
05:02PM 22.5275 -125.6368 24° Northeast 399 459 5,500  Level FlightAware Transoceanic
05:03PM 22.6587 -125.5743 24° Northeast 399 459 5,500  Level FlightAware Transoceanic
05:04PM 22.7898 -125.5117 24° Northeast 399 459 5,500  Level FlightAware Transoceanic
05:05PM 22.9209 -125.4490 24° Northeast 399 459 5,500  Level FlightAware Transoceanic
05:06PM 23.0520 -125.3861 24° Northeast 399 459 5,500  Level FlightAware Transoceanic
05:07PM 23.1830 -125.3231 24° Northeast 399 459 5,500  Level FlightAware Transoceanic
05:08PM 23.3141 -125.2600 24° Northeast 399 459 5,500  Level FlightAware Transoceanic
05:09PM 23.4450 -125.1968 24° Northeast 399 459 5,500  Level FlightAware Transoceanic
05:10PM 23.5760 -125.1334 24° Northeast 399 459 5,500  Level FlightAware Transoceanic
05:11PM 23.7070 -125.0699 24° Northeast 399 459 5,500  Level FlightAware Transoceanic
05:12PM 23.8379 -125.0063 24° Northeast 399 459 5,500  Level FlightAware Transoceanic
05:13PM 23.9688 -124.9426 24° Northeast 399 459 5,500  Level FlightAware Transoceanic
05:14PM 24.0997 -124.8787 24° Northeast 399 459 5,500  Level FlightAware Transoceanic
05:15PM 24.2305 -124.8147 24° Northeast 399 459 5,500  Level FlightAware Transoceanic
05:16PM 24.3613 -124.7506 24° Northeast 399 459 5,500  Level FlightAware Transoceanic
05:17PM 24.4921 -124.6863 24° Northeast 399 459 5,500  Level FlightAware Transoceanic
05:18PM 24.6229 -124.6219 24° Northeast 399 459 5,500  Level FlightAware Transoceanic
05:19PM 24.7536 -124.5574 24° Northeast 399 459 5,500  Level FlightAware Transoceanic
05:20PM 24.8843 -124.4927 24° Northeast 399 459 5,500  Level FlightAware Transoceanic
05:21PM 25.0150 -124.4279 24° Northeast 399 459 5,500  Level FlightAware Transoceanic
05:22PM 25.1457 -124.3630 24° Northeast 399 459 5,500  Level FlightAware Transoceanic
05:23PM 25.2763 -124.2979 24° Northeast 399 459 5,500  Level FlightAware Transoceanic
05:24PM 25.4069 -124.2327 24° Northeast 399 459 5,500  Level FlightAware Transoceanic
05:25PM 25.5375 -124.1673 24° Northeast 399 459 5,500  Level FlightAware Transoceanic
05:26PM 25.6680 -124.1018 24° Northeast 399 459 5,500  Level FlightAware Transoceanic
05:27PM 25.7985 -124.0362 24° Northeast 399 459 5,500  Level FlightAware Transoceanic
05:28PM 25.9290 -123.9704 24° Northeast 399 459 5,500  Level FlightAware Transoceanic
05:29PM 26.0594 -123.9044 24° Northeast 399 459 5,500  Level FlightAware Transoceanic
05:30PM 26.1898 -123.8383 24° Northeast 399 459 5,500  Level FlightAware Transoceanic
05:31PM 26.3202 -123.7721 25° Northeast 399 459 5,500  Level FlightAware Transoceanic
05:32PM 26.4506 -123.7057 25° Northeast 399 459 5,500  Level FlightAware Transoceanic
05:33PM 26.5809 -123.6392 25° Northeast 399 459 5,500  Level FlightAware Transoceanic
05:34PM 26.7112 -123.5725 25° Northeast 399 459 5,500  Level FlightAware Transoceanic
05:35PM 26.8415 -123.5057 25° Northeast 399 459 5,500  Level FlightAware Transoceanic
05:36PM 26.9717 -123.4387 25° Northeast 399 459 5,500  Level FlightAware Transoceanic
05:37PM 27.1019 -123.3715 25° Northeast 399 459 5,500  Level FlightAware Transoceanic
05:37PM 25.0667 -121.8833 227° Southwest 336 387 5,500  Level Oakland Oceanic (ODAPS)
05:38PM 27.2321 -123.3042 25° Northeast 399 459 5,500  Level FlightAware Transoceanic
05:39PM 27.3622 -123.2368 25° Northeast 399 459 5,500  Level FlightAware Transoceanic
05:40PM 27.4923 -123.1691 25° Northeast 399 459 5,500  Level FlightAware Transoceanic
05:41PM 27.6224 -123.1014 25° Northeast 399 459 5,500  Level FlightAware Transoceanic
05:42PM 27.7524 -123.0334 25° Northeast 399 459 5,500  Level FlightAware Transoceanic
05:43PM 24.6921 -124.5878 24° Northeast 336 387 5,500  Level FlightAware Transoceanic
05:44PM 24.7778 -124.5455 24° Northeast 336 387 5,500  Level FlightAware Transoceanic
05:45PM 24.8635 -124.5031 24° Northeast 336 387 5,500  Level FlightAware Transoceanic
05:46PM 24.9491 -124.4606 24° Northeast 336 387 5,500  Level FlightAware Transoceanic
05:47PM 25.0348 -124.4181 24° Northeast 336 387 5,500  Level FlightAware Transoceanic
05:48PM 25.1204 -124.3755 24° Northeast 336 387 5,500  Level FlightAware Transoceanic
05:49PM 25.2060 -124.3329 24° Northeast 336 387 5,500  Level FlightAware Transoceanic
05:50PM 25.2917 -124.2902 24° Northeast 336 387 5,500  Level FlightAware Transoceanic
05:51PM 25.3773 -124.2475 24° Northeast 336 387 5,500  Level FlightAware Transoceanic
05:52PM 25.4628 -124.2047 24° Northeast 336 387 5,500  Level FlightAware Transoceanic
05:53PM 25.5484 -124.1618 24° Northeast 336 387 5,500  Level FlightAware Transoceanic
05:54PM 25.6340 -124.1189 24° Northeast 336 387 5,500  Level FlightAware Transoceanic
05:55PM 25.7195 -124.0759 24° Northeast 336 387 5,500  Level FlightAware Transoceanic
05:56PM 25.8051 -124.0329 24° Northeast 336 387 5,500  Level FlightAware Transoceanic
05:57PM 25.8906 -123.9897 24° Northeast 336 387 5,500  Level FlightAware Transoceanic
05:58PM 25.9761 -123.9466 24° Northeast 336 387 5,500  Level FlightAware Transoceanic
05:59PM 26.0616 -123.9033 24° Northeast 336 387 5,500  Level FlightAware Transoceanic
06:00PM 26.1471 -123.8600 24° Northeast 336 387 5,500  Level FlightAware Transoceanic
06:01PM 26.2326 -123.8167 24° Northeast 336 387 5,500  Level FlightAware Transoceanic
06:02PM 26.3180 -123.7732 25° Northeast 336 387 5,500  Level FlightAware Transoceanic
06:03PM 26.4035 -123.7297 25° Northeast 336 387 5,500  Level FlightAware Transoceanic
06:04PM 26.4889 -123.6862 25° Northeast 336 387 5,500  Level FlightAware Transoceanic
06:05PM 26.5743 -123.6426 25° Northeast 336 387 5,500  Level FlightAware Transoceanic
06:06PM 26.6597 -123.5989 25° Northeast 336 387 5,500  Level FlightAware Transoceanic
06:07PM 26.7451 -123.5551 25° Northeast 336 387 5,500  Level FlightAware Transoceanic
06:08PM 26.8305 -123.5113 25° Northeast 336 387 5,500  Level FlightAware Transoceanic
06:09PM 26.9159 -123.4674 25° Northeast 336 387 5,500  Level FlightAware Transoceanic
06:10PM 27.0012 -123.4235 25° Northeast 336 387 5,500  Level FlightAware Transoceanic
06:11PM 27.0866 -123.3794 25° Northeast 336 387 5,500  Level FlightAware Transoceanic
06:12PM 27.1719 -123.3354 25° Northeast 336 387 5,500  Level FlightAware Transoceanic
06:13PM 27.2572 -123.2912 25° Northeast 336 387 5,500  Level FlightAware Transoceanic
06:14PM 27.3425 -123.2470 25° Northeast 336 387 5,500  Level FlightAware Transoceanic
06:15PM 27.4278 -123.2027 25° Northeast 336 387 5,500  Level FlightAware Transoceanic
06:16PM 27.5131 -123.1583 25° Northeast 336 387 5,500  Level FlightAware Transoceanic
06:17PM 27.5983 -123.1139 25° Northeast 336 387 5,500  Level FlightAware Transoceanic
06:18PM 27.6836 -123.0694 25° Northeast 336 387 5,500  Level FlightAware Transoceanic
06:19PM 27.7688 -123.0248 25° Northeast 336 387 5,500  Level FlightAware Transoceanic
06:20PM 27.8540 -122.9802 25° Northeast 336 387 5,500  Level FlightAware Transoceanic
06:21PM 27.9392 -122.9355 25° Northeast 336 387 5,500  Level FlightAware Transoceanic
06:22PM 28.0244 -122.8907 25° Northeast 336 387 5,500  Level FlightAware Transoceanic
06:23PM 28.1096 -122.8459 25° Northeast 336 387 5,500  Level FlightAware Transoceanic
06:24PM 28.1947 -122.8010 25° Northeast 336 387 5,500  Level FlightAware Transoceanic
06:25PM 28.2799 -122.7560 25° Northeast 336 387 5,500  Level FlightAware Transoceanic
06:26PM 28.3650 -122.7109 25° Northeast 336 387 5,500  Level FlightAware Transoceanic
06:27PM 28.4501 -122.6658 25° Northeast 336 387 5,500  Level FlightAware Transoceanic
06:28PM 28.5352 -122.6206 25° Northeast 336 387 5,500  Level FlightAware Transoceanic
06:29PM 28.6203 -122.5753 25° Northeast 336 387 5,500  Level FlightAware Transoceanic
06:30PM 28.7054 -122.5299 25° Northeast 336 387 5,500  Level FlightAware Transoceanic
06:31PM 28.7904 -122.4845 25° Northeast 336 387 5,500  Level FlightAware Transoceanic
06:32PM 28.8755 -122.4390 25° Northeast 336 387 5,500  Level FlightAware Transoceanic
06:33PM 28.9605 -122.3934 25° Northeast 336 387 5,500  Level FlightAware Transoceanic
06:34PM 29.0455 -122.3478 25° Northeast 336 387 5,500  Level FlightAware Transoceanic
06:35PM 29.1305 -122.3021 25° Northeast 336 387 5,500  Level FlightAware Transoceanic
06:36PM 29.2155 -122.2563 25° Northeast 336 387 5,500  Level FlightAware Transoceanic
06:37PM 29.3004 -122.2104 25° Northeast 336 387 5,500  Level FlightAware Transoceanic
06:38PM 29.3854 -122.1644 25° Northeast 336 387 5,500  Level FlightAware Transoceanic
06:39PM 29.4703 -122.1184 25° Northeast 336 387 5,500  Level FlightAware Transoceanic
06:40PM 29.5552 -122.0723 25° Northeast 336 387 5,500  Level FlightAware Transoceanic
06:41PM 29.6401 -122.0261 25° Northeast 336 387 5,500  Level FlightAware Transoceanic
06:42PM 29.7250 -121.9799 25° Northeast 336 387 5,500  Level FlightAware Transoceanic
06:43PM 29.8099 -121.9335 25° Northeast 336 387 5,500  Level FlightAware Transoceanic
06:44PM 29.8947 -121.8871 25° Northeast 336 387 5,500  Level FlightAware Transoceanic
06:45PM 29.9795 -121.8406 25° Northeast 336 387 5,500  Level FlightAware Transoceanic
06:46PM 30.0644 -121.7940 25° Northeast 336 387 5,500  Level FlightAware Transoceanic
06:47PM 30.1492 -121.7474 25° Northeast 336 387 5,500  Level FlightAware Transoceanic
06:48PM 30.2339 -121.7006 25° Northeast 336 387 5,500  Level FlightAware Transoceanic
06:49PM 30.3187 -121.6538 26° Northeast 336 387 5,500  Level FlightAware Transoceanic
06:50PM 30.4034 -121.6069 26° Northeast 336 387 5,500  Level FlightAware Transoceanic
06:51PM 30.4882 -121.5599 26° Northeast 336 387 5,500  Level FlightAware Transoceanic
06:52PM 30.5729 -121.5128 26° Northeast 336 387 5,500  Level FlightAware Transoceanic
06:53PM 30.6576 -121.4657 26° Northeast 336 387 5,500  Level FlightAware Transoceanic
06:54PM 30.7423 -121.4185 26° Northeast 336 387 5,500  Level FlightAware Transoceanic
06:55PM 30.8269 -121.3711 26° Northeast 336 387 5,500  Level FlightAware Transoceanic
06:56PM 30.9116 -121.3238 26° Northeast 336 387 5,500 22,920 Level FlightAware Transoceanic
06:56PM 28.8833 -122.1167 13° North 547 629 30,000  Climbing Oakland Oceanic (ODAPS)
06:57PM 30.9962 -121.2763 26° Northeast 336 387 5,500 -12,720 Descending FlightAware Transoceanic
06:58PM 31.0808 -121.2287 26° Northeast 336 387 5,500  Level FlightAware Transoceanic
06:59PM 31.1654 -121.1811 26° Northeast 336 387 5,500 6,120 Level FlightAware Transoceanic
07:00PM 31.2507 -121.0720 48° Northeast  Level Estimated
07:01PM 31.3358 -120.9628 48° Northeast  Level Estimated
07:02PM 31.2539 -121.4816 13° North 547 629 30,000  Level FlightAware Transoceanic
07:03PM 31.4020 -121.4409 13° North 547 629 30,000  Level FlightAware Transoceanic
07:04PM 31.5500 -121.4000 67° East 547 629 30,000  Level FlightAware Transoceanic
07:05PM 31.6078 -121.2387 67° East 547 629 30,000  Level FlightAware Transoceanic
07:06PM 31.6653 -121.0772 67° East 547 629 30,000  Level FlightAware Transoceanic
07:07PM 31.7227 -120.9155 67° East 547 629 30,000  Level FlightAware Transoceanic
07:08PM 31.7798 -120.7536 68° East 547 629 30,000  Level FlightAware Transoceanic
07:09PM 31.8367 -120.5915 68° East 547 629 30,000  Level FlightAware Transoceanic
07:10PM 31.8935 -120.4292 68° East 547 629 30,000 -180 Level FlightAware Transoceanic
07:11PM 31.9286 -120.2862 74° East  Level FlightAware Approximate
07:12PM 31.9635 -120.1431 74° East  Level FlightAware Approximate
07:13PM 32.0096 -120.1697 47° Northeast  Level FlightAware Approximate
07:14PM 32.0955 -120.0603 47° Northeast  Level FlightAware Approximate
07:15PM 32.1812 -119.9507 47° Northeast  Level FlightAware Approximate
07:16PM 32.2668 -119.8409 47° Northeast  Level FlightAware Approximate
07:17PM 32.3524 -119.7308 47° Northeast  Level FlightAware Approximate
07:17PM 32.6850 -119.4180 47° Northeast 543 625 29,000  Level FlightAware
07:17PM 32.7490 -119.3260 50° Northeast 544 626 29,000  Level FlightAware
07:18PM 32.8110 -119.2370 50° Northeast 543 625 29,000  Level FlightAware
07:19PM 32.8760 -119.1430 51° Northeast 543 625 29,000  Level FlightAware
07:19PM 32.9530 -119.0330 50° Northeast 542 624 29,000  Level FlightAware
07:20PM 33.0220 -118.9340 50° Northeast 541 623 29,000  Level FlightAware
07:21PM 33.0900 -118.8350 51° Northeast 544 626 29,000  Level FlightAware
07:22PM 33.1540 -118.7430 50° Northeast 546 628 29,000  Level FlightAware
07:22PM 33.2270 -118.6370 51° Northeast 547 629 29,000  Level FlightAware
07:23PM 33.2940 -118.5380 51° Northeast 550 633 29,000  Level FlightAware
07:24PM 33.3540 -118.4270 57° Northeast 565 650 29,000 -300 Level FlightAware
07:25PM 33.3530 -118.2500 90° East 581 669 28,500 -780 Descending FlightAware
07:25PM 33.3360 -118.1230 99° East 570 656 27,800 -1,800 Descending FlightAware
07:26PM 33.3270 -117.9880 95° East 549 632 26,000 -2,400 Descending FlightAware
07:27PM 33.3250 -117.8670 91° East 535 616 24,400 -1,440 Descending FlightAware
07:27PM 33.3230 -117.7430 91° East 494 568 24,000 -1,560 Descending FlightAware
07:28PM 33.3200 -117.6360 92° East 476 548 22,200 -4,380 Descending FlightAware
07:29PM 33.3160 -117.5330 93° East 466 536 18,200 -6,000 Descending FlightAware